Time;durP1;ratioP1;P1;durP2;ratioP2;P2;SDS_P1;SDS_P2;PMS_P1;PMS_P2;Temp;Humidity;BMP_temperature;BMP_pressure;BME280_temperature;BME280_humidity;BME280_pressure;Samples;Min_cycle;Max_cycle;Signal;HPM_P1;HPM_P2
2022/10/25 00:01:15;;;;;;;28.42;20.85;;;12.70;99.90;;;;;;4958315;28;20050;-77
2022/10/25 00:03:40;;;;;;;32.05;22.83;;;12.80;99.90;;;;;;4955465;29;20043;-76
2022/10/25 00:06:11;;;;;;;31.25;22.75;;;12.80;99.90;;;;;;4957589;28;20047;-76
2022/10/25 00:08:38;;;;;;;33.67;24.67;;;12.80;99.90;;;;;;4991267;28;20049;-77
2022/10/25 00:11:05;;;;;;;37.05;24.83;;;12.80;99.90;;;;;;4991353;28;20055;-77
2022/10/25 00:13:30;;;;;;;34.63;25.27;;;12.90;99.90;;;;;;5007309;28;20042;-76
2022/10/25 00:15:56;;;;;;;31.60;24.13;;;12.80;99.90;;;;;;4995233;28;20467;-76
2022/10/25 00:18:22;;;;;;;32.42;24.13;;;12.80;99.90;;;;;;4943441;28;20039;-76
2022/10/25 00:20:48;;;;;;;34.88;24.80;;;12.70;99.90;;;;;;4991167;28;20046;-76
2022/10/25 00:23:14;;;;;;;35.45;25.17;;;12.70;99.90;;;;;;4974719;28;20066;-76
2022/10/25 00:25:40;;;;;;;31.65;23.75;;;12.60;99.90;;;;;;4998744;28;20047;-77
2022/10/25 00:28:05;;;;;;;35.40;24.70;;;12.60;99.90;;;;;;4953759;28;20057;-77
2022/10/25 00:30:31;;;;;;;35.15;24.08;;;12.60;99.90;;;;;;5006821;28;20070;-77
2022/10/25 00:32:57;;;;;;;31.65;22.83;;;12.50;99.90;;;;;;4990282;28;20046;-77
2022/10/25 00:35:23;;;;;;;34.85;25.05;;;12.60;99.90;;;;;;5007418;28;20085;-76
2022/10/25 00:37:50;;;;;;;32.85;23.02;;;12.60;99.90;;;;;;4998898;28;20047;-77
2022/10/25 00:40:17;;;;;;;31.60;22.88;;;12.60;99.90;;;;;;4952248;28;20486;-77
2022/10/25 00:42:42;;;;;;;35.50;24.55;;;12.60;99.90;;;;;;4955494;28;20047;-77
2022/10/25 00:45:20;;;;;;;31.75;23.98;;;12.60;99.90;;;;;;4999783;28;20491;-76
2022/10/25 00:47:56;;;;;;;30.55;22.77;;;12.50;99.90;;;;;;4945137;28;20491;-77
2022/10/25 00:50:31;;;;;;;30.75;22.13;;;12.50;99.90;;;;;;4961307;28;20059;-77
2022/10/25 00:53:03;;;;;;;34.42;22.23;;;12.50;99.90;;;;;;4994216;28;20078;-77
2022/10/25 00:55:29;;;;;;;33.95;24.27;;;12.50;99.90;;;;;;4993449;28;20051;-77
2022/10/25 00:58:10;;;;;;;33.20;22.88;;;12.50;99.90;;;;;;4987322;28;20047;-77
2022/10/25 01:00:35;;;;;;;28.45;21.52;;;12.40;99.90;;;;;;4954863;28;20071;-77
2022/10/25 01:03:02;;;;;;;32.05;21.85;;;12.40;99.90;;;;;;4989818;28;20493;-77
2022/10/25 01:05:27;;;;;;;34.67;22.92;;;12.40;99.90;;;;;;4973282;28;20055;-76
2022/10/25 01:07:53;;;;;;;31.40;22.48;;;12.40;99.90;;;;;;4972493;28;20136;-77
2022/10/25 01:10:19;;;;;;;33.63;21.65;;;12.50;99.90;;;;;;4974810;28;20043;-77
2022/10/25 01:12:45;;;;;;;33.53;20.90;;;12.50;99.90;;;;;;4957665;28;20047;-76
2022/10/25 01:15:11;;;;;;;29.55;22.15;;;12.50;99.90;;;;;;4954695;28;20122;-77
2022/10/25 01:18:05;;;;;;;30.60;20.00;;;12.50;99.90;;;;;;4961594;28;20083;-77
2022/10/25 01:20:31;;;;;;;33.60;21.83;;;12.50;99.90;;;;;;4968826;28;20114;-77
2022/10/25 01:23:18;;;;;;;30.10;20.42;;;12.60;99.90;;;;;;4970630;28;20134;-76
2022/10/25 01:25:44;;;;;;;28.70;19.80;;;12.50;99.90;;;;;;4951460;28;20126;-77
2022/10/25 01:28:24;;;;;;;30.58;20.30;;;12.60;99.90;;;;;;4970285;28;20131;-77
2022/10/25 01:31:14;;;;;;;34.13;20.90;;;12.60;99.90;;;;;;4954466;28;20047;-76
2022/10/25 01:34:00;;;;;;;30.05;20.50;;;12.60;99.90;;;;;;4987348;28;20058;-77
2022/10/25 01:37:04;;;;;;;31.25;18.90;;;12.60;99.90;;;;;;4973963;28;20090;-77
2022/10/25 01:39:42;;;;;;;28.10;19.60;;;12.60;99.90;;;;;;5006155;28;20043;-77
2022/10/25 01:42:42;;;;;;;28.58;19.40;;;12.60;99.90;;;;;;4973216;28;20062;-77
2022/10/25 01:45:18;;;;;;;30.15;19.92;;;12.60;99.90;;;;;;4996406;28;20039;-77
2022/10/25 01:47:51;;;;;;;27.80;18.63;;;12.60;99.90;;;;;;5005707;28;20130;-77
2022/10/25 01:50:23;;;;;;;29.33;18.85;;;12.50;99.90;;;;;;5006190;28;20063;-77
2022/10/25 01:52:49;;;;;;;26.52;18.13;;;12.50;99.90;;;;;;5005200;28;20121;-76
2022/10/25 01:55:16;;;;;;;27.38;18.63;;;12.50;99.90;;;;;;4964403;28;20131;-76
2022/10/25 01:57:50;;;;;;;26.65;18.15;;;12.50;99.90;;;;;;4971334;28;20039;-77
2022/10/25 02:00:21;;;;;;;30.02;18.67;;;12.40;99.90;;;;;;5005360;28;20043;-76
2022/10/25 02:02:59;;;;;;;26.73;17.53;;;12.40;99.90;;;;;;4971247;28;20051;-77
2022/10/25 02:05:46;;;;;;;26.58;17.80;;;12.40;99.90;;;;;;4995187;28;20367;-76
2022/10/25 02:08:17;;;;;;;27.92;17.35;;;12.40;99.90;;;;;;5004980;28;20046;-76
2022/10/25 02:11:07;;;;;;;25.05;16.85;;;12.40;99.90;;;;;;5005933;28;20078;-76
2022/10/25 02:13:36;;;;;;;24.67;16.33;;;12.30;99.90;;;;;;4958612;28;20035;-76
2022/10/25 02:16:15;;;;;;;27.10;16.73;;;12.30;99.90;;;;;;4957450;28;20093;-77
2022/10/25 02:18:46;;;;;;;30.50;17.48;;;12.30;99.90;;;;;;4957539;28;20050;-77
2022/10/25 02:21:12;;;;;;;25.83;17.15;;;12.30;99.90;;;;;;4972354;28;20049;-76
2022/10/25 02:23:39;;;;;;;28.95;17.08;;;12.20;99.90;;;;;;4992664;28;20134;-76
2022/10/25 02:26:07;;;;;;;29.75;16.70;;;12.20;99.90;;;;;;4971656;28;20053;-76
2022/10/25 02:28:35;;;;;;;29.15;17.08;;;12.20;99.90;;;;;;4961836;28;20130;-76
2022/10/25 02:31:00;;;;;;;27.05;16.95;;;12.20;99.90;;;;;;4956221;28;20077;-77
2022/10/25 02:33:26;;;;;;;26.65;17.42;;;12.30;99.90;;;;;;4964140;28;20082;-77
2022/10/25 02:36:14;;;;;;;24.27;16.83;;;12.20;99.90;;;;;;4954468;28;20472;-77
2022/10/25 02:38:42;;;;;;;25.63;17.13;;;12.20;99.90;;;;;;4972507;28;20053;-76
2022/10/25 02:41:09;;;;;;;26.58;16.95;;;12.30;99.90;;;;;;5005027;28;20043;-76
2022/10/25 02:43:35;;;;;;;28.80;18.35;;;12.30;99.90;;;;;;4973822;28;20100;-76
2022/10/25 02:46:11;;;;;;;30.83;19.13;;;12.30;99.90;;;;;;5004893;28;20082;-76
2022/10/25 02:48:37;;;;;;;29.48;19.20;;;12.30;99.90;;;;;;4991889;28;20557;-77
2022/10/25 02:51:08;;;;;;;28.77;19.10;;;12.30;99.90;;;;;;4973061;28;20039;-77
2022/10/25 02:53:34;;;;;;;28.63;18.80;;;12.40;99.90;;;;;;4973750;28;20042;-76
2022/10/25 02:56:13;;;;;;;30.67;20.27;;;12.40;99.90;;;;;;4972761;28;20078;-76
2022/10/25 02:58:42;;;;;;;35.40;21.38;;;12.40;99.90;;;;;;4971852;28;20081;-76
2022/10/25 03:01:08;;;;;;;30.33;20.60;;;12.50;99.90;;;;;;4972554;28;20047;-76
2022/10/25 03:03:34;;;;;;;28.75;20.35;;;12.50;99.90;;;;;;4959551;28;20042;-76
2022/10/25 03:05:59;;;;;;;31.33;21.30;;;12.50;99.90;;;;;;4973800;28;20097;-76
2022/10/25 03:08:26;;;;;;;33.92;21.67;;;12.50;99.90;;;;;;5001685;28;20133;-77
2022/10/25 03:10:52;;;;;;;33.83;21.77;;;12.50;99.90;;;;;;4963308;28;20038;-76
2022/10/25 03:13:18;;;;;;;27.15;19.25;;;12.60;99.90;;;;;;5004442;28;20047;-76
2022/10/25 03:15:45;;;;;;;33.85;20.85;;;12.60;99.90;;;;;;4971813;28;20507;-76
2022/10/25 03:18:12;;;;;;;27.83;19.38;;;12.70;99.90;;;;;;4958311;28;20055;-77
2022/10/25 03:20:38;;;;;;;28.58;19.85;;;12.70;99.90;;;;;;4972453;28;20054;-76
2022/10/25 03:23:04;;;;;;;31.00;19.52;;;12.70;99.90;;;;;;4994280;28;20395;-76
2022/10/25 03:25:30;;;;;;;28.90;19.40;;;12.80;99.90;;;;;;4966528;28;20058;-76
2022/10/25 03:27:59;;;;;;;31.20;20.63;;;12.90;99.90;;;;;;4962243;28;20038;-77
2022/10/25 03:30:29;;;;;;;29.45;19.70;;;12.90;99.90;;;;;;4961283;28;20051;-77
2022/10/25 03:32:55;;;;;;;31.65;20.60;;;12.90;99.90;;;;;;5007385;28;20430;-77
2022/10/25 03:35:21;;;;;;;26.60;19.13;;;12.90;99.90;;;;;;4958233;28;20467;-77
2022/10/25 03:37:48;;;;;;;25.92;18.73;;;13.00;99.90;;;;;;5007758;28;20046;-77
2022/10/25 03:40:14;;;;;;;28.05;19.48;;;13.00;99.90;;;;;;4964420;28;20059;-77
2022/10/25 03:42:40;;;;;;;30.20;19.85;;;13.00;99.90;;;;;;4959481;28;20096;-77
2022/10/25 03:45:05;;;;;;;27.63;19.13;;;13.00;99.90;;;;;;4991914;28;20116;-76
2022/10/25 03:47:31;;;;;;;27.55;19.27;;;13.00;99.90;;;;;;4991455;28;20062;-77
2022/10/25 03:49:57;;;;;;;31.65;19.15;;;13.00;99.90;;;;;;4974739;28;20154;-77
2022/10/25 03:52:23;;;;;;;27.45;19.25;;;13.00;99.90;;;;;;4976613;28;20093;-77
2022/10/25 03:54:48;;;;;;;25.75;18.52;;;13.00;99.90;;;;;;4961559;28;20074;-76
2022/10/25 03:57:14;;;;;;;30.30;18.85;;;13.00;99.90;;;;;;4975683;28;20061;-76
2022/10/25 03:59:40;;;;;;;24.92;17.98;;;13.00;99.90;;;;;;4974807;28;20045;-77
2022/10/25 04:02:05;;;;;;;31.42;18.65;;;13.00;99.90;;;;;;4966060;28;20439;-77
2022/10/25 04:04:31;;;;;;;27.33;18.13;;;13.00;99.90;;;;;;4971347;28;20046;-77
2022/10/25 04:06:57;;;;;;;25.98;17.63;;;13.00;99.90;;;;;;5007810;28;20038;-77
2022/10/25 04:09:22;;;;;;;24.58;17.85;;;12.90;99.90;;;;;;5007525;28;20451;-76
2022/10/25 04:11:48;;;;;;;28.27;18.35;;;12.90;99.90;;;;;;4961623;28;20099;-76
2022/10/25 04:14:14;;;;;;;26.08;17.77;;;12.80;99.90;;;;;;5007327;28;20129;-76
2022/10/25 04:16:39;;;;;;;26.65;18.33;;;12.80;99.90;;;;;;4956040;28;20442;-77
2022/10/25 04:19:05;;;;;;;27.30;18.08;;;12.80;99.90;;;;;;4996535;28;20070;-76
2022/10/25 04:21:31;;;;;;;28.13;18.42;;;12.80;99.90;;;;;;4959792;28;20054;-77
2022/10/25 04:23:57;;;;;;;31.77;18.83;;;12.70;99.90;;;;;;4972337;28;20442;-77
2022/10/25 04:26:22;;;;;;;29.73;18.02;;;12.70;99.90;;;;;;4974756;28;20082;-76
2022/10/25 04:28:50;;;;;;;29.83;19.23;;;12.70;99.90;;;;;;4974486;28;20038;-77
2022/10/25 04:31:16;;;;;;;33.10;19.73;;;12.70;99.90;;;;;;4955627;28;20059;-77
2022/10/25 04:33:42;;;;;;;29.10;18.33;;;12.70;99.90;;;;;;4954739;28;20384;-77
2022/10/25 04:36:07;;;;;;;29.35;18.00;;;12.70;99.90;;;;;;4989432;28;20047;-77
2022/10/25 04:38:33;;;;;;;28.77;18.60;;;12.70;99.90;;;;;;4989873;28;20094;-77
2022/10/25 04:41:00;;;;;;;30.15;18.73;;;12.70;99.90;;;;;;4989391;28;20055;-77
2022/10/25 04:43:28;;;;;;;29.98;19.17;;;12.80;99.90;;;;;;4961805;28;20035;-77
2022/10/25 04:45:54;;;;;;;28.10;18.90;;;12.80;99.90;;;;;;4992140;28;20051;-77
2022/10/25 04:48:20;;;;;;;29.25;18.98;;;12.80;99.90;;;;;;4966111;28;20101;-77
2022/10/25 04:50:46;;;;;;;28.30;18.73;;;12.80;99.90;;;;;;4959755;28;20059;-77
2022/10/25 04:53:12;;;;;;;32.05;19.60;;;12.80;99.90;;;;;;4957423;28;20050;-77
2022/10/25 04:55:38;;;;;;;29.88;19.70;;;12.80;99.90;;;;;;4958530;28;20054;-77
2022/10/25 04:58:04;;;;;;;28.55;18.50;;;12.80;99.90;;;;;;4958751;28;20382;-76
2022/10/25 05:00:30;;;;;;;31.23;18.50;;;12.80;99.90;;;;;;4995891;28;20042;-76
2022/10/25 05:02:56;;;;;;;28.65;17.92;;;12.80;99.90;;;;;;4959432;28;20047;-76
2022/10/25 05:05:23;;;;;;;27.45;18.08;;;12.90;99.90;;;;;;4998687;28;20479;-77
2022/10/25 05:07:49;;;;;;;30.30;18.45;;;12.80;99.90;;;;;;4993399;28;20102;-76
2022/10/25 05:10:14;;;;;;;29.48;18.63;;;12.80;99.90;;;;;;4961976;28;20043;-77
2022/10/25 05:12:40;;;;;;;28.27;17.27;;;12.80;99.90;;;;;;4957360;28;20426;-77
2022/10/25 05:15:07;;;;;;;29.63;18.27;;;12.80;99.90;;;;;;4994435;28;20055;-76
2022/10/25 05:17:33;;;;;;;30.10;18.70;;;12.80;99.90;;;;;;4955073;28;20046;-76
2022/10/25 05:19:58;;;;;;;28.95;17.63;;;12.80;99.90;;;;;;4958944;28;20039;-77
2022/10/25 05:22:25;;;;;;;36.65;19.05;;;12.80;99.90;;;;;;4991514;28;20046;-76
2022/10/25 05:24:52;;;;;;;34.00;18.20;;;12.80;99.90;;;;;;4963435;28;20086;-76
2022/10/25 05:27:18;;;;;;;29.98;17.83;;;12.80;99.90;;;;;;4963993;28;20506;-76
2022/10/25 05:29:44;;;;;;;28.90;17.27;;;12.70;99.90;;;;;;4964380;28;20054;-76
2022/10/25 05:32:09;;;;;;;26.98;17.73;;;12.70;99.90;;;;;;4993474;28;20465;-76
2022/10/25 05:34:35;;;;;;;30.02;17.83;;;12.80;99.90;;;;;;4968202;28;20046;-75
2022/10/25 05:37:01;;;;;;;30.08;17.83;;;12.70;99.90;;;;;;4973291;28;20046;-76
2022/10/25 05:39:26;;;;;;;32.70;18.50;;;12.70;99.90;;;;;;4956552;28;20122;-76
2022/10/25 05:41:52;;;;;;;27.05;17.20;;;12.70;99.90;;;;;;4959815;28;20043;-76
2022/10/25 05:44:18;;;;;;;33.58;18.88;;;12.60;99.90;;;;;;4953967;28;20042;-76
2022/10/25 05:46:44;;;;;;;31.23;17.33;;;12.60;99.90;;;;;;4947087;28;20046;-76
2022/10/25 05:49:10;;;;;;;30.08;18.00;;;12.50;99.90;;;;;;4961961;28;20471;-77
2022/10/25 05:51:36;;;;;;;35.13;19.40;;;12.50;99.90;;;;;;4989021;28;20472;-76
2022/10/25 05:54:22;;;;;;;33.97;18.95;;;12.50;99.90;;;;;;4959325;28;20043;-76
2022/10/25 05:56:47;;;;;;;31.45;18.38;;;12.40;99.90;;;;;;4962895;28;20043;-76
2022/10/25 05:59:14;;;;;;;30.48;18.52;;;12.40;99.90;;;;;;4972651;28;20047;-76
2022/10/25 06:01:42;;;;;;;31.80;18.00;;;12.40;99.90;;;;;;4957934;28;20399;-76
2022/10/25 06:04:08;;;;;;;34.72;17.95;;;12.40;99.90;;;;;;4957309;28;20058;-75
2022/10/25 06:06:35;;;;;;;29.95;17.40;;;12.50;99.90;;;;;;4969229;28;20055;-76
2022/10/25 06:09:02;;;;;;;32.08;18.17;;;12.40;99.90;;;;;;5000434;28;20038;-76
2022/10/25 06:11:29;;;;;;;27.38;16.10;;;12.50;99.90;;;;;;4969854;28;20051;-76
2022/10/25 06:13:54;;;;;;;27.65;16.15;;;12.50;99.90;;;;;;4970639;28;20054;-76
2022/10/25 06:16:21;;;;;;;29.00;16.13;;;12.50;99.90;;;;;;4970937;28;20047;-75
2022/10/25 06:18:47;;;;;;;27.63;15.70;;;12.40;99.90;;;;;;4967618;28;20046;-75
2022/10/25 06:21:19;;;;;;;30.63;16.08;;;12.50;99.90;;;;;;4969818;28;20507;-76
2022/10/25 06:23:46;;;;;;;28.42;16.40;;;12.40;99.90;;;;;;4963489;28;20072;-76
2022/10/25 06:26:18;;;;;;;26.98;14.68;;;12.40;99.90;;;;;;4968941;28;20379;-76
2022/10/25 06:28:43;;;;;;;;;;;12.50;99.90;;;;;;4972018;28;20062;-75
2022/10/25 06:31:12;;;;;;;28.75;14.90;;;12.50;99.90;;;;;;4970541;28;19929;-76
2022/10/25 06:33:38;;;;;;;26.58;15.57;;;12.50;99.90;;;;;;4970133;28;20047;-76
2022/10/25 06:36:06;;;;;;;27.85;14.25;;;12.50;99.90;;;;;;4971937;28;20133;-75
2022/10/25 06:38:32;;;;;;;30.83;15.23;;;12.50;99.90;;;;;;4969746;28;20050;-75
2022/10/25 06:40:59;;;;;;;29.77;15.52;;;12.60;99.90;;;;;;4970915;28;20478;-76
2022/10/25 06:43:26;;;;;;;28.85;14.57;;;12.60;99.90;;;;;;4990822;28;20077;-76
2022/10/25 06:45:52;;;;;;;29.85;14.60;;;12.60;99.90;;;;;;4954680;28;20471;-76
2022/10/25 06:48:18;;;;;;;31.25;14.88;;;12.60;99.90;;;;;;4968634;28;20102;-75
2022/10/25 06:50:44;;;;;;;26.77;14.68;;;12.60;99.90;;;;;;4969369;28;20058;-76
2022/10/25 06:53:09;;;;;;;26.98;13.90;;;12.60;99.90;;;;;;4951979;28;20051;-75
2022/10/25 06:55:35;;;;;;;26.42;13.93;;;12.60;99.90;;;;;;4951924;28;20050;-75
2022/10/25 06:58:01;;;;;;;28.98;14.20;;;12.60;99.90;;;;;;4967746;28;20070;-76
2022/10/25 07:00:26;;;;;;;27.20;14.30;;;12.70;99.90;;;;;;4969904;28;20486;-75
2022/10/25 07:02:59;;;;;;;24.75;13.45;;;12.70;99.90;;;;;;4997488;28;20047;-76
2022/10/25 07:05:25;;;;;;;29.17;14.73;;;12.70;99.90;;;;;;4904926;28;20059;-75
2022/10/25 07:07:52;;;;;;;27.77;14.32;;;12.60;99.90;;;;;;4978355;28;20070;-75
2022/10/25 07:10:18;;;;;;;28.15;14.15;;;12.60;99.90;;;;;;4975259;28;20089;-75
2022/10/25 07:12:44;;;;;;;28.88;14.15;;;12.60;99.90;;;;;;4973749;28;20066;-75
2022/10/25 07:15:10;;;;;;;30.58;14.73;;;12.60;99.90;;;;;;4974258;28;20069;-75
2022/10/25 07:17:36;;;;;;;23.75;14.10;;;12.60;99.90;;;;;;4974025;28;20105;-76
2022/10/25 07:20:02;;;;;;;26.63;14.38;;;12.60;99.90;;;;;;4971435;28;20051;-75
2022/10/25 07:22:28;;;;;;;29.33;14.80;;;12.60;99.90;;;;;;4957312;28;20049;-76
2022/10/25 07:24:54;;;;;;;29.73;14.75;;;12.70;99.90;;;;;;4958959;28;20047;-76
2022/10/25 07:27:19;;;;;;;28.70;14.13;;;12.70;99.90;;;;;;4974205;28;20038;-75
2022/10/25 07:29:45;;;;;;;30.10;14.35;;;12.70;99.90;;;;;;4973610;28;20050;-76
2022/10/25 07:32:11;;;;;;;27.50;13.88;;;12.70;99.90;;;;;;4957565;28;20051;-76
2022/10/25 07:34:37;;;;;;;27.40;14.40;;;12.70;99.90;;;;;;4956455;28;20046;-75
2022/10/25 07:37:02;;;;;;;27.05;14.60;;;12.70;99.90;;;;;;4974021;28;20134;-75
2022/10/25 07:39:28;;;;;;;28.10;14.68;;;12.80;99.90;;;;;;4972481;28;20117;-75
2022/10/25 07:41:54;;;;;;;36.00;14.70;;;12.90;99.90;;;;;;4973481;28;20077;-76
2022/10/25 07:44:20;;;;;;;27.52;13.10;;;12.90;99.90;;;;;;4972646;28;20558;-75
2022/10/25 07:46:46;;;;;;;32.70;15.63;;;13.00;99.90;;;;;;4974280;28;20053;-75
2022/10/25 07:49:13;;;;;;;28.67;14.30;;;13.10;99.90;;;;;;4971377;28;20537;-75
2022/10/25 07:51:38;;;;;;;28.80;13.60;;;13.20;99.90;;;;;;4973266;28;20043;-76
2022/10/25 07:54:04;;;;;;;26.50;13.95;;;13.20;99.90;;;;;;4973123;28;20109;-75
2022/10/25 07:56:30;;;;;;;27.25;14.18;;;13.30;99.90;;;;;;4973053;28;20558;-75
2022/10/25 07:58:56;;;;;;;31.52;13.55;;;13.40;99.90;;;;;;4973930;28;20039;-76
2022/10/25 08:01:26;;;;;;;25.92;14.48;;;13.40;99.90;;;;;;4973009;28;20063;-76
2022/10/25 08:03:53;;;;;;;28.13;13.35;;;13.40;99.90;;;;;;4972332;28;20101;-75
2022/10/25 08:06:21;;;;;;;25.13;13.30;;;13.40;99.90;;;;;;4973132;28;20085;-76
2022/10/25 08:08:47;;;;;;;24.85;13.52;;;13.40;99.90;;;;;;4955847;28;20045;-74
2022/10/25 08:11:13;;;;;;;25.80;13.80;;;13.50;99.90;;;;;;4973297;28;20129;-75
2022/10/25 08:13:39;;;;;;;28.95;14.10;;;13.50;99.90;;;;;;4972576;28;20490;-74
2022/10/25 08:16:05;;;;;;;30.42;14.18;;;13.50;99.90;;;;;;4973635;28;20051;-74
2022/10/25 08:18:32;;;;;;;26.45;13.23;;;13.50;99.90;;;;;;4971441;28;20042;-75
2022/10/25 08:20:59;;;;;;;32.88;13.82;;;13.60;99.90;;;;;;4954743;28;20036;-75
2022/10/25 08:23:25;;;;;;;21.15;13.15;;;13.70;99.90;;;;;;4972373;28;20081;-75
2022/10/25 08:25:50;;;;;;;24.58;13.60;;;13.70;99.90;;;;;;4952662;28;20078;-75
2022/10/25 08:28:16;;;;;;;25.98;14.50;;;13.80;99.90;;;;;;4955936;28;20078;-75
2022/10/25 08:30:42;;;;;;;23.23;13.13;;;13.80;99.90;;;;;;4971547;28;20066;-75
2022/10/25 08:33:08;;;;;;;27.02;13.73;;;13.90;99.90;;;;;;4971080;28;20055;-74
2022/10/25 08:35:34;;;;;;;25.65;14.30;;;13.90;99.90;;;;;;4969226;28;20047;-75
2022/10/25 08:38:00;;;;;;;25.33;13.88;;;14.00;99.90;;;;;;4971067;28;20566;-74
2022/10/25 08:41:05;;;;;;;24.33;13.68;;;14.00;99.90;;;;;;4972234;28;20046;-75
2022/10/25 08:43:37;;;;;;;26.45;13.18;;;14.20;99.90;;;;;;4959990;28;20050;-76
2022/10/25 08:46:12;;;;;;;25.40;13.98;;;14.20;99.90;;;;;;4971903;28;20042;-76
2022/10/25 08:48:43;;;;;;;26.48;14.48;;;14.20;99.90;;;;;;4970134;28;20109;-76
2022/10/25 08:51:49;;;;;;;23.35;14.75;;;14.20;99.90;;;;;;4971732;28;20046;-74
2022/10/25 08:54:37;;;;;;;25.27;14.35;;;14.30;99.90;;;;;;4933764;28;20039;-76
2022/10/25 08:57:22;;;;;;;22.42;14.07;;;14.40;99.90;;;;;;4933852;28;20451;-76
2022/10/25 09:00:11;;;;;;;24.73;13.88;;;14.50;99.90;;;;;;4960103;28;20090;-76
2022/10/25 09:02:57;;;;;;;23.80;12.63;;;14.50;99.90;;;;;;4969013;28;20043;-75
2022/10/25 09:05:55;;;;;;;24.25;13.43;;;14.50;99.90;;;;;;4971944;28;20098;-77
2022/10/25 09:08:48;;;;;;;23.95;13.90;;;14.50;99.90;;;;;;4970626;28;20125;-76
2022/10/25 09:11:29;;;;;;;23.52;13.63;;;14.60;99.90;;;;;;4971863;28;20050;-76
2022/10/25 09:14:07;;;;;;;26.58;13.60;;;14.70;99.90;;;;;;4970205;28;20043;-77
2022/10/25 09:17:11;;;;;;;22.05;12.95;;;14.80;99.90;;;;;;4969815;28;20057;-77
2022/10/25 09:20:01;;;;;;;23.05;12.35;;;15.00;99.90;;;;;;4966202;28;20087;-77
2022/10/25 09:22:30;;;;;;;24.15;12.20;;;15.10;99.90;;;;;;4953045;28;20090;-77
2022/10/25 09:25:07;;;;;;;20.10;11.63;;;15.40;99.90;;;;;;4970560;28;20078;-76
2022/10/25 09:27:42;;;;;;;21.83;10.90;;;15.50;99.90;;;;;;4968538;28;20553;-77
2022/10/25 09:30:10;;;;;;;21.67;10.95;;;15.50;99.90;;;;;;4951412;28;20054;-77
2022/10/25 09:32:45;;;;;;;18.58;9.85;;;15.50;99.90;;;;;;4967257;28;20054;-76
2022/10/25 09:35:17;;;;;;;19.55;10.18;;;15.50;99.90;;;;;;4970419;28;20081;-75
2022/10/25 09:38:20;;;;;;;18.50;8.55;;;15.50;99.90;;;;;;4970712;28;20039;-76
2022/10/25 09:40:51;;;;;;;17.58;8.48;;;15.40;99.90;;;;;;4934715;28;20051;-77
2022/10/25 09:43:22;;;;;;;14.47;8.20;;;15.30;99.90;;;;;;4970743;28;20047;-77
2022/10/25 09:46:16;;;;;;;16.88;8.20;;;15.10;99.90;;;;;;4971993;28;20066;-76
2022/10/25 09:48:51;;;;;;;18.58;7.80;;;15.10;99.90;;;;;;4961057;28;20047;-76
2022/10/25 09:51:45;;;;;;;14.77;7.10;;;15.10;99.90;;;;;;4969902;28;20061;-77
2022/10/25 09:54:37;;;;;;;14.98;7.20;;;15.10;99.90;;;;;;4969936;28;20114;-77
2022/10/25 09:57:03;;;;;;;17.95;6.70;;;15.10;99.90;;;;;;4963402;28;20046;-77
2022/10/25 09:59:29;;;;;;;13.93;6.30;;;15.10;99.90;;;;;;4953913;28;20042;-78
2022/10/25 10:01:54;;;;;;;15.48;5.93;;;15.20;99.90;;;;;;4955001;28;20047;-78
2022/10/25 10:04:33;;;;;;;13.27;5.68;;;15.20;99.90;;;;;;4970300;28;20072;-77
2022/10/25 10:07:04;;;;;;;11.73;5.13;;;15.30;99.90;;;;;;4971575;28;20467;-77
2022/10/25 10:09:31;;;;;;;12.88;5.60;;;15.40;99.90;;;;;;4970281;28;20051;-77
2022/10/25 10:11:58;;;;;;;12.75;5.15;;;15.40;99.90;;;;;;4970995;28;20057;-77
2022/10/25 10:14:39;;;;;;;15.27;5.30;;;15.40;99.90;;;;;;4954792;28;20051;-77
2022/10/25 10:17:10;;;;;;;11.82;5.13;;;15.30;99.90;;;;;;4970988;28;20055;-77
2022/10/25 10:19:36;;;;;;;14.02;4.72;;;15.40;99.90;;;;;;4951062;28;20138;-77
2022/10/25 10:22:08;;;;;;;13.55;4.90;;;15.40;99.90;;;;;;4918464;28;20082;-77
2022/10/25 10:24:38;;;;;;;;;;;15.40;99.90;;;;;;4959456;28;20129;-77
2022/10/25 10:27:23;;;;;;;14.98;4.97;;;15.40;99.90;;;;;;4970734;28;20294;-77
2022/10/25 10:29:54;;;;;;;13.90;4.93;;;15.40;99.90;;;;;;4984234;28;20035;-77
2022/10/25 10:32:33;;;;;;;12.07;4.25;;;15.60;99.90;;;;;;4969857;28;20050;-78
2022/10/25 10:35:01;;;;;;;11.98;4.00;;;15.80;99.90;;;;;;4985557;28;20356;-76
2022/10/25 10:37:31;;;;;;;13.35;3.95;;;15.90;99.90;;;;;;4970670;28;20062;-80
2022/10/25 10:40:07;;;;;;;13.52;4.07;;;16.00;99.90;;;;;;4968115;28;20399;-77
2022/10/25 10:42:40;;;;;;;13.80;3.80;;;16.00;99.90;;;;;;4988167;28;20065;-77
2022/10/25 10:45:08;;;;;;;12.75;3.72;;;16.10;99.90;;;;;;4974091;28;20431;-79
2022/10/25 10:47:37;;;;;;;13.52;3.92;;;16.10;99.90;;;;;;4974580;28;20322;-77
2022/10/25 10:50:24;;;;;;;13.50;4.22;;;16.10;99.90;;;;;;4987128;28;20066;-78
2022/10/25 10:53:28;;;;;;;15.88;3.95;;;16.10;99.90;;;;;;4973564;28;20169;-77
2022/10/25 10:55:55;;;;;;;13.57;3.80;;;16.20;99.90;;;;;;4974427;28;20050;-77
2022/10/25 10:58:31;;;;;;;11.32;3.50;;;16.10;99.90;;;;;;4973516;28;20530;-78
2022/10/25 11:01:05;;;;;;;12.00;3.40;;;16.10;99.90;;;;;;4970520;28;20046;-76
2022/10/25 11:03:40;;;;;;;11.55;3.33;;;16.00;99.90;;;;;;4973278;28;20434;-77
2022/10/25 11:06:07;;;;;;;10.73;3.38;;;16.10;99.90;;;;;;4988304;28;20049;-79
2022/10/25 11:08:33;;;;;;;10.43;3.17;;;16.10;99.90;;;;;;4970746;28;20070;-77
2022/10/25 11:11:22;;;;;;;10.27;3.30;;;16.30;99.90;;;;;;4957175;28;20047;-76
2022/10/25 11:13:59;;;;;;;10.88;3.20;;;16.40;99.90;;;;;;4975106;28;20131;-78
2022/10/25 11:16:37;;;;;;;9.48;2.90;;;16.50;99.90;;;;;;4973849;28;20129;-78
2022/10/25 11:19:25;;;;;;;10.05;2.90;;;16.50;99.90;;;;;;4972290;28;20042;-78
2022/10/25 11:22:23;;;;;;;9.38;2.58;;;16.50;99.90;;;;;;4982575;28;20322;-78
2022/10/25 11:25:04;;;;;;;10.23;2.85;;;16.50;99.90;;;;;;4968106;28;20435;-78
2022/10/25 11:27:48;;;;;;;13.15;3.10;;;16.50;99.90;;;;;;4966713;28;20061;-77
2022/10/25 11:30:20;;;;;;;9.63;2.97;;;16.40;99.90;;;;;;4965271;28;20074;-77
2022/10/25 11:33:15;;;;;;;9.52;2.80;;;16.50;99.90;;;;;;4981202;28;20460;-78
2022/10/25 11:36:05;;;;;;;9.63;3.28;;;16.50;99.90;;;;;;4965475;28;20082;-77
2022/10/25 11:38:59;;;;;;;12.38;3.00;;;16.50;99.90;;;;;;4966007;28;20051;-78
2022/10/25 11:41:33;;;;;;;9.43;3.33;;;16.40;99.90;;;;;;4967170;28;20047;-77
2022/10/25 11:44:23;;;;;;;10.60;3.30;;;16.40;99.90;;;;;;4970215;28;20089;-77
2022/10/25 11:46:59;;;;;;;10.30;3.15;;;16.40;99.90;;;;;;4971884;28;20101;-77
2022/10/25 11:49:57;;;;;;;10.70;2.80;;;16.40;99.90;;;;;;4971301;28;20042;-77
2022/10/25 11:52:50;;;;;;;9.57;3.00;;;16.40;99.90;;;;;;4924757;28;20066;-79
2022/10/25 11:55:19;;;;;;;12.10;3.20;;;16.40;99.90;;;;;;4967216;28;20044;-74
2022/10/25 11:58:06;;;;;;;8.68;2.65;;;16.60;99.90;;;;;;4985402;28;20479;-79
2022/10/25 12:01:03;;;;;;;9.07;2.80;;;16.80;99.90;;;;;;4970382;28;20078;-79
2022/10/25 12:03:49;;;;;;;10.05;2.55;;;16.80;99.90;;;;;;4971767;28;20134;-78
2022/10/25 12:06:38;;;;;;;12.13;3.15;;;16.80;99.90;;;;;;4971498;28;20046;-79
2022/10/25 12:09:32;;;;;;;9.75;2.92;;;16.60;99.90;;;;;;4971214;28;20121;-78
2022/10/25 12:12:02;;;;;;;8.70;2.78;;;16.60;99.90;;;;;;4973210;28;20034;-79
2022/10/25 12:14:33;;;;;;;11.10;2.80;;;16.60;99.90;;;;;;4956401;28;20042;-79
2022/10/25 12:17:02;;;;;;;7.22;2.60;;;16.70;99.90;;;;;;4974751;28;20058;-78
2022/10/25 12:19:31;;;;;;;8.77;2.50;;;16.80;99.90;;;;;;4970815;28;20054;-77
2022/10/25 12:22:24;;;;;;;10.07;2.70;;;16.90;99.90;;;;;;4966013;28;20035;-79
2022/10/25 12:24:59;;;;;;;10.20;2.65;;;17.00;99.90;;;;;;4970695;28;20137;-79
2022/10/25 12:27:27;;;;;;;9.43;2.63;;;17.00;99.90;;;;;;4988284;28;20085;-79
2022/10/25 12:30:05;;;;;;;9.63;3.08;;;17.00;99.90;;;;;;4971836;28;20045;-77
2022/10/25 12:32:43;;;;;;;7.85;2.70;;;17.00;99.90;;;;;;4973594;28;20463;-78
2022/10/25 12:35:32;;;;;;;9.40;2.70;;;17.00;99.90;;;;;;4965174;28;20129;-78
2022/10/25 12:38:03;;;;;;;10.50;2.70;;;16.90;99.90;;;;;;4971935;28;20459;-79
2022/10/25 12:40:35;;;;;;;10.20;2.80;;;16.80;99.90;;;;;;4950541;28;20070;-79
2022/10/25 12:43:15;;;;;;;7.65;2.60;;;16.80;99.90;;;;;;4971003;28;20058;-80
2022/10/25 12:45:56;;;;;;;12.02;3.03;;;16.80;99.90;;;;;;4973486;28;20054;-78
2022/10/25 12:49:00;;;;;;;11.27;3.00;;;16.80;99.90;;;;;;4968249;28;20051;-78
2022/10/25 12:51:35;;;;;;;8.05;2.65;;;16.80;99.90;;;;;;4971523;28;20475;-77
2022/10/25 12:54:30;;;;;;;9.85;2.80;;;16.70;99.90;;;;;;4956145;28;20078;-78